createdAt,value
2023-04-05T00:00:46.681Z,99641.41
2023-04-05T00:03:14.270Z,99650.19
2023-04-05T00:05:41.725Z,99659.06
2023-04-05T00:08:13.590Z,99653.94
2023-04-05T00:10:41.270Z,99660.38
2023-04-05T00:13:08.955Z,99668.50
2023-04-05T00:15:36.361Z,99678.03
2023-04-05T00:18:04.001Z,99704.16
2023-04-05T00:20:31.484Z,99723.81
2023-04-05T00:22:59.105Z,99712.72
2023-04-05T00:25:26.467Z,99716.16
2023-04-05T00:27:53.823Z,99723.91
2023-04-05T00:30:21.407Z,99722.22
2023-04-05T00:32:50.198Z,99757.19
2023-04-05T00:35:18.054Z,99747.56
2023-04-05T00:37:45.439Z,99737.69
2023-04-05T00:40:12.915Z,99727.31
2023-04-05T00:42:40.418Z,99751.31
2023-04-05T00:45:08.176Z,99775.59
2023-04-05T00:47:35.940Z,99780.09
2023-04-05T00:50:03.748Z,99779.22
2023-04-05T00:52:32.241Z,99784.53
2023-04-05T00:54:59.693Z,99783.47
2023-04-05T00:57:38.788Z,99804.22
2023-04-05T01:00:09.558Z,99803.63
2023-04-05T01:02:52.113Z,99805.91
2023-04-05T01:05:27.702Z,99814.47
2023-04-05T01:08:08.343Z,99819.53
2023-04-05T01:10:44.684Z,99829.28
2023-04-05T01:13:12.119Z,99841.75
2023-04-05T01:15:39.495Z,99865.06
2023-04-05T01:18:10.239Z,99859.63
2023-04-05T01:20:44.833Z,99859.22
2023-04-05T01:23:39.072Z,99862.59
2023-04-05T01:26:30.526Z,99869.88
2023-04-05T01:29:24.282Z,99870.59
2023-04-05T01:32:07.843Z,99892.31
2023-04-05T01:34:54.980Z,99884.97
2023-04-05T01:37:27.973Z,99880.69
2023-04-05T01:39:56.210Z,99886.31
2023-04-05T01:42:26.160Z,99876.25
2023-04-05T01:44:55.352Z,99880.50
2023-04-05T01:47:22.878Z,99893.34
2023-04-05T01:49:50.426Z,99903.44
2023-04-05T01:52:17.882Z,99890.56
2023-04-05T01:54:45.405Z,99896.03
2023-04-05T01:57:12.772Z,99895.81
2023-04-05T01:59:39.686Z,99892.22
2023-04-05T02:02:07.071Z,99893.22
2023-04-05T02:04:34.572Z,99904.50
2023-04-05T02:07:03.000Z,99925.47
2023-04-05T02:09:30.606Z,99947.81
2023-04-05T02:11:57.933Z,99971.03
2023-04-05T02:14:25.962Z,99981.03
2023-04-05T02:16:56.676Z,99986.16
2023-04-05T02:19:24.092Z,99992.22
2023-04-05T02:21:53.710Z,99992.38
2023-04-05T02:24:21.839Z,99996.69
2023-04-05T02:26:48.855Z,99989.84
2023-04-05T02:29:16.220Z,99983.91
2023-04-05T02:31:43.426Z,99989.38
2023-04-05T02:34:11.696Z,99994.16
2023-04-05T02:36:39.019Z,99982.06
2023-04-05T02:39:06.307Z,99971.47
2023-04-05T02:41:33.728Z,99975.44
2023-04-05T02:44:01.245Z,99964.91
2023-04-05T02:46:28.543Z,99945.03
2023-04-05T02:48:55.548Z,99933.59
2023-04-05T02:51:22.991Z,99933.75
2023-04-05T02:53:50.295Z,99930.59
2023-04-05T02:56:17.376Z,99925.47
2023-04-05T02:58:44.842Z,99920.47
2023-04-05T03:01:12.827Z,99912.34
2023-04-05T03:03:40.857Z,99899.91
2023-04-05T03:06:11.025Z,99893.06
2023-04-05T03:08:44.033Z,99877.16
2023-04-05T03:11:11.587Z,99898.47
2023-04-05T03:13:38.989Z,99897.63
2023-04-05T03:16:06.713Z,99901.06
2023-04-05T03:18:34.161Z,99891.56
2023-04-05T03:21:01.580Z,99878.03
2023-04-05T03:23:31.039Z,99883.88
2023-04-05T03:25:58.020Z,99892.72
2023-04-05T03:28:25.896Z,99899.34
2023-04-05T03:30:53.600Z,99898.47
2023-04-05T03:33:21.002Z,99893.19
2023-04-05T03:35:48.646Z,99902.00
2023-04-05T03:38:16.397Z,99916.91
2023-04-05T03:40:43.873Z,99903.09
2023-04-05T03:43:11.446Z,99899.22
2023-04-05T03:45:39.028Z,99900.09
2023-04-05T03:48:06.898Z,99895.72
2023-04-05T03:50:34.281Z,99898.41
2023-04-05T03:53:01.688Z,99896.41
2023-04-05T03:55:29.098Z,99897.69
2023-04-05T03:57:56.139Z,99902.50
2023-04-05T04:00:24.651Z,99903.59
2023-04-05T04:02:52.864Z,99914.38
2023-04-05T04:05:21.399Z,99907.28
2023-04-05T04:07:48.894Z,99904.47
2023-04-05T04:10:17.891Z,99921.91
2023-04-05T04:12:45.990Z,99912.81
2023-04-05T04:15:13.334Z,99918.16
2023-04-05T04:17:41.139Z,99922.38
2023-04-05T04:20:11.966Z,99906.41
2023-04-05T04:22:40.706Z,99910.03
2023-04-05T04:25:12.797Z,99903.88
2023-04-05T04:27:43.671Z,99905.66
2023-04-05T04:30:13.347Z,99905.59
2023-04-05T04:32:52.122Z,99899.63
2023-04-05T04:35:29.197Z,99907.34
2023-04-05T04:38:07.386Z,99912.63
2023-04-05T04:40:39.341Z,99917.75
2023-04-05T04:43:14.305Z,99917.41
2023-04-05T04:45:42.056Z,99931.16
2023-04-05T04:48:09.992Z,99942.69
2023-04-05T04:50:37.795Z,99947.66
2023-04-05T04:53:04.824Z,99966.09
2023-04-05T04:55:33.541Z,99977.44
2023-04-05T04:58:00.986Z,99987.88
2023-04-05T05:00:28.368Z,100012.16
2023-04-05T05:02:56.248Z,100020.16
2023-04-05T05:05:23.753Z,100033.28
2023-04-05T05:07:52.847Z,100024.00
2023-04-05T05:10:20.668Z,100031.25
2023-04-05T05:12:51.850Z,100032.28
2023-04-05T05:15:19.665Z,100036.53
2023-04-05T05:17:47.433Z,100030.72
2023-04-05T05:20:14.840Z,100023.00
2023-04-05T05:22:42.556Z,100019.22
2023-04-05T05:25:10.045Z,100017.38
2023-04-05T05:27:37.384Z,100033.03
2023-04-05T05:30:05.844Z,100043.56
2023-04-05T05:32:33.288Z,100040.75
2023-04-05T05:35:00.859Z,100063.41
2023-04-05T05:37:34.785Z,100053.78
2023-04-05T05:40:02.266Z,100062.59
2023-04-05T05:42:29.789Z,100056.66
2023-04-05T05:44:57.117Z,100062.59
2023-04-05T05:47:24.505Z,100068.28
2023-04-05T05:49:51.985Z,100064.19
2023-04-05T05:52:19.332Z,100082.59
2023-04-05T05:54:47.392Z,100073.22
2023-04-05T05:57:14.749Z,100085.63
2023-04-05T05:59:42.221Z,100091.50
2023-04-05T06:02:10.629Z,100099.91
2023-04-05T06:04:38.106Z,100098.06
2023-04-05T06:07:05.240Z,100116.84
2023-04-05T06:09:35.381Z,100122.88
2023-04-05T06:12:03.078Z,100124.81
2023-04-05T06:14:30.533Z,100138.28
2023-04-05T06:16:58.206Z,100141.78
2023-04-05T06:19:25.544Z,100159.03
2023-04-05T06:21:53.009Z,100167.09
2023-04-05T06:24:21.041Z,100167.44
2023-04-05T06:26:48.368Z,100186.69
2023-04-05T06:29:16.061Z,100198.94
2023-04-05T06:31:43.803Z,100193.38
2023-04-05T06:34:11.426Z,100176.16
2023-04-05T06:36:38.749Z,100175.28
2023-04-05T06:39:06.151Z,100185.34
2023-04-05T06:41:33.246Z,100186.78
2023-04-05T06:44:04.676Z,100197.72
2023-04-05T06:46:32.421Z,100203.38
2023-04-05T06:49:03.012Z,100197.22
2023-04-05T06:51:32.237Z,100203.00
2023-04-05T06:53:59.711Z,100212.66
2023-04-05T06:56:27.304Z,100229.03
2023-04-05T06:58:55.766Z,100212.91
2023-04-05T07:01:24.906Z,100217.28
2023-04-05T07:03:53.414Z,100203.34
2023-04-05T07:06:21.678Z,100202.69
2023-04-05T07:08:53.645Z,100183.84
2023-04-05T07:11:21.586Z,100153.63
2023-04-05T07:13:48.899Z,100154.94
2023-04-05T07:16:18.183Z,100164.50
2023-04-05T07:18:45.769Z,100125.19
2023-04-05T07:21:12.750Z,100094.78
2023-04-05T07:23:40.154Z,100077.41
2023-04-05T07:26:08.539Z,100080.28
2023-04-05T07:28:36.523Z,100079.88
2023-04-05T07:31:07.556Z,100068.41
2023-04-05T07:33:35.023Z,100081.19
2023-04-05T07:36:03.578Z,100105.84
2023-04-05T07:38:31.036Z,100090.31
2023-04-05T07:40:58.864Z,100107.19
2023-04-05T07:43:26.468Z,100107.16
2023-04-05T07:46:01.152Z,100112.78
2023-04-05T07:48:28.577Z,100115.63
2023-04-05T07:50:55.877Z,100092.09
2023-04-05T07:53:23.359Z,100109.91
2023-04-05T07:55:51.015Z,100102.38
2023-04-05T07:58:18.335Z,100093.34
2023-04-05T08:00:45.624Z,100110.00
2023-04-05T08:03:13.083Z,100089.84
2023-04-05T08:05:40.889Z,100063.03
2023-04-05T08:08:11.138Z,99998.56
2023-04-05T08:10:41.373Z,99983.28
2023-04-05T08:13:08.870Z,100001.59
2023-04-05T08:15:36.583Z,99966.56
2023-04-05T08:18:04.157Z,99961.09
2023-04-05T08:20:31.645Z,99900.34
2023-04-05T08:22:58.999Z,99861.88
2023-04-05T08:25:26.401Z,99858.53
2023-04-05T08:27:54.049Z,99866.38
2023-04-05T08:30:22.028Z,99860.56
2023-04-05T08:32:49.513Z,99803.75
2023-04-05T08:35:16.955Z,99789.38
2023-04-05T08:37:44.487Z,99808.25
2023-04-05T08:40:12.879Z,99751.75
2023-04-05T08:43:04.555Z,99679.41
2023-04-05T08:45:34.358Z,99687.44
2023-04-05T08:48:01.898Z,99648.22
2023-04-05T08:50:29.398Z,99666.22
2023-04-05T08:52:56.816Z,99627.72
2023-04-05T08:55:24.840Z,99662.22
2023-04-05T08:57:59.150Z,99666.91
2023-04-05T09:00:27.522Z,99692.06
2023-04-05T09:02:58.694Z,99575.44
2023-04-05T09:05:26.999Z,99547.44
2023-04-05T09:07:55.526Z,99537.81
2023-04-05T09:10:23.646Z,99514.91
2023-04-05T09:12:53.217Z,99508.25
2023-04-05T09:15:24.335Z,99490.03
2023-04-05T09:17:51.942Z,99481.25
2023-04-05T09:20:19.716Z,99414.72
2023-04-05T09:22:47.490Z,99424.44
2023-04-05T09:25:42.607Z,99242.78
2023-04-05T09:28:10.355Z,99319.22
2023-04-05T09:30:38.162Z,99384.31
2023-04-05T09:33:10.512Z,99302.69
2023-04-05T09:35:38.403Z,99206.25
2023-04-05T09:38:06.143Z,99320.44
2023-04-05T09:40:47.662Z,99201.97
2023-04-05T09:43:42.105Z,99194.94
2023-04-05T09:46:33.969Z,99107.22
2023-04-05T09:49:03.865Z,99172.94
2023-04-05T09:51:38.436Z,99079.00
2023-04-05T09:54:10.784Z,99033.44
2023-04-05T09:56:40.892Z,99058.84
2023-04-05T09:59:12.478Z,98964.13
2023-04-05T10:01:44.461Z,98962.34
2023-04-05T10:04:11.896Z,99001.50
2023-04-05T10:06:43.161Z,98997.09
2023-04-05T10:09:12.117Z,98983.63
2023-04-05T10:11:39.910Z,98798.78
2023-04-05T10:14:08.792Z,98846.19
2023-04-05T10:17:16.645Z,98853.97
2023-04-05T10:20:17.146Z,98826.66
2023-04-05T10:23:10.206Z,98925.22
2023-04-05T10:25:53.184Z,98756.94
2023-04-05T10:28:34.703Z,98837.25
2023-04-05T10:31:46.343Z,98823.13
2023-04-05T10:34:42.756Z,98624.31
2023-04-05T10:37:23.662Z,98597.84
2023-04-05T10:39:51.329Z,98713.44
2023-04-05T10:42:36.538Z,98670.16
2023-04-05T10:45:10.069Z,98819.03
2023-04-05T10:47:43.529Z,98824.81
2023-04-05T10:50:18.391Z,98650.53
2023-04-05T10:52:47.354Z,98663.03
2023-04-05T10:55:16.144Z,98687.44
2023-04-05T10:57:45.668Z,98786.00
2023-04-05T11:00:15.872Z,98713.06
2023-04-05T11:02:43.617Z,98676.34
2023-04-05T11:05:32.674Z,98335.03
2023-04-05T11:08:12.692Z,98594.63
2023-04-05T11:10:40.222Z,98409.84
2023-04-05T11:13:09.189Z,98560.94
2023-04-05T11:15:36.955Z,98529.38
2023-04-05T11:18:22.772Z,98371.63
2023-04-05T11:21:07.688Z,98427.75
2023-04-05T11:24:07.281Z,98446.94
2023-04-05T11:26:56.723Z,98440.78
2023-04-05T11:29:50.775Z,98345.25
2023-04-05T11:32:18.350Z,98240.44
2023-04-05T11:34:45.669Z,98451.25
2023-04-05T11:37:15.808Z,98149.06
2023-04-05T11:39:42.758Z,98467.19
2023-04-05T11:42:13.174Z,98477.25
2023-04-05T11:44:49.607Z,98222.66
2023-04-05T11:47:23.436Z,98301.53
2023-04-05T11:49:52.107Z,98381.78
2023-04-05T11:52:21.524Z,98180.44
2023-04-05T11:54:49.393Z,98314.13
2023-04-05T11:57:22.912Z,98325.03
2023-04-05T11:59:52.474Z,98028.41
2023-04-05T12:02:20.502Z,98302.44
2023-04-05T12:04:57.082Z,98422.13
2023-04-05T12:07:36.966Z,97913.81
2023-04-05T12:10:19.587Z,97811.44
2023-04-05T12:12:48.884Z,97959.59
2023-04-05T12:15:19.032Z,97975.84
2023-04-05T12:17:51.847Z,97824.06
2023-04-05T12:20:24.670Z,97912.09
2023-04-05T12:22:57.302Z,97958.13
2023-04-05T12:25:24.973Z,97998.81
2023-04-05T12:27:53.346Z,97917.34
2023-04-05T12:30:23.359Z,97942.50
2023-04-05T12:32:55.384Z,98015.13
2023-04-05T12:35:27.135Z,97861.28
2023-04-05T12:37:54.636Z,97617.16
2023-04-05T12:40:23.521Z,97655.22
2023-04-05T12:42:51.214Z,97648.50
2023-04-05T12:45:18.893Z,97708.59
2023-04-05T12:50:30.798Z,97865.34
2023-04-05T12:53:02.078Z,97718.28
2023-04-05T12:55:30.608Z,97688.31
2023-04-05T12:58:02.448Z,97334.81
2023-04-05T13:00:31.066Z,97456.44
2023-04-05T13:02:59.818Z,97649.41
2023-04-05T13:05:30.920Z,97836.25
2023-04-05T13:07:58.979Z,97800.56
2023-04-05T13:10:26.468Z,97550.47
2023-04-05T13:12:53.498Z,97424.03
2023-04-05T13:15:20.920Z,97385.66
2023-04-05T13:17:50.306Z,97493.06
2023-04-05T13:20:18.414Z,97556.94
2023-04-05T13:22:46.588Z,97522.06
2023-04-05T13:25:16.150Z,97829.16
2023-04-05T13:27:43.396Z,97590.88
2023-04-05T13:30:11.000Z,97752.88
2023-04-05T13:32:38.059Z,97683.13
2023-04-05T13:35:06.009Z,97705.81
2023-04-05T13:37:33.167Z,97636.22
2023-04-05T13:40:03.449Z,97439.28
2023-04-05T13:42:31.124Z,97589.22
2023-04-05T13:44:58.461Z,97487.66
2023-04-05T13:47:25.566Z,97665.59
2023-04-05T13:49:52.528Z,97499.34
2023-04-05T13:52:19.451Z,97406.38
2023-04-05T13:54:46.503Z,97118.41
2023-04-05T13:57:14.637Z,97388.03
2023-04-05T13:59:41.794Z,97692.47
2023-04-05T14:02:09.194Z,97486.84
2023-04-05T14:04:36.598Z,97296.19
2023-04-05T14:07:04.260Z,97194.56
2023-04-05T14:09:32.638Z,97537.03
2023-04-05T14:12:02.555Z,97438.19
2023-04-05T14:14:30.171Z,97322.00
2023-04-05T14:16:57.602Z,97502.41
2023-04-05T14:19:25.063Z,97403.53
2023-04-05T14:21:52.633Z,97381.41
2023-04-05T14:24:20.075Z,97333.53
2023-04-05T14:26:49.841Z,97336.72
2023-04-05T14:29:19.140Z,97220.25
2023-04-05T14:31:46.744Z,97065.72
2023-04-05T14:34:14.271Z,97085.69
2023-04-05T14:36:41.917Z,97232.78
2023-04-05T14:39:09.020Z,97093.28
2023-04-05T14:41:36.580Z,97370.06
2023-04-05T14:44:03.974Z,97234.06
2023-04-05T14:46:31.372Z,97156.91
2023-04-05T14:48:58.824Z,96979.78
2023-04-05T14:51:26.912Z,97022.47
2023-04-05T14:53:54.264Z,96844.19
2023-04-05T14:56:21.882Z,96999.81
2023-04-05T14:58:49.323Z,97230.91
2023-04-05T15:01:16.614Z,97162.56
2023-04-05T15:03:44.229Z,97092.44
2023-04-05T15:06:11.424Z,96885.50
2023-04-05T15:08:38.804Z,97207.81
2023-04-05T15:11:06.264Z,97098.59
2023-04-05T15:13:33.984Z,96863.19
2023-04-05T15:16:01.493Z,97012.81
2023-04-05T15:18:28.567Z,96760.59
2023-04-05T15:20:55.914Z,96859.22
2023-04-05T15:23:23.132Z,97001.03
2023-04-05T15:25:50.752Z,96726.28
2023-04-05T15:28:18.137Z,96899.59
2023-04-05T15:30:45.969Z,96970.75
2023-04-05T15:33:13.484Z,96863.25
2023-04-05T15:35:41.490Z,97082.34
2023-04-05T15:38:08.536Z,97053.94
2023-04-05T15:40:36.448Z,97046.53
2023-04-05T15:43:03.842Z,96724.03
2023-04-05T15:45:31.810Z,97002.19
2023-04-05T15:47:59.296Z,96898.34
2023-04-05T15:50:27.159Z,96999.72
2023-04-05T15:52:54.617Z,97124.34
2023-04-05T15:55:21.729Z,96970.09
2023-04-05T15:57:53.722Z,96801.50
2023-04-05T16:00:22.585Z,96904.59
2023-04-05T16:02:52.893Z,96847.03
2023-04-05T16:05:22.268Z,96962.78
2023-04-05T16:07:49.317Z,96886.88
2023-04-05T16:10:19.912Z,96949.59
2023-04-05T16:12:47.456Z,96890.84
2023-04-05T16:15:14.862Z,96840.00
2023-04-05T16:17:42.411Z,96844.47
2023-04-05T16:20:10.712Z,96752.09
2023-04-05T16:22:38.276Z,96822.09
2023-04-05T16:25:06.280Z,96922.56
2023-04-05T16:30:10.447Z,96738.34
2023-04-05T16:32:38.554Z,96919.81
2023-04-05T16:35:06.480Z,96760.53
2023-04-05T16:37:34.088Z,96832.59
2023-04-05T16:40:02.947Z,96763.47
2023-04-05T16:42:30.684Z,96721.88
2023-04-05T16:44:58.348Z,96641.59
2023-04-05T16:47:28.782Z,96764.13
2023-04-05T16:49:56.630Z,96754.69
2023-04-05T16:52:24.359Z,96721.31
2023-04-05T16:54:52.840Z,96758.03
2023-04-05T16:57:20.530Z,96802.31
2023-04-05T16:59:48.003Z,96811.50
2023-04-05T17:02:16.220Z,96712.53
2023-04-05T17:04:44.294Z,96796.69
2023-04-05T17:07:12.336Z,96863.69
2023-04-05T17:09:40.092Z,96786.03
2023-04-05T17:12:10.796Z,96718.22
2023-04-05T17:14:40.160Z,96944.28
2023-04-05T17:17:13.820Z,96849.00
2023-04-05T17:19:44.089Z,96798.06
2023-04-05T17:22:14.012Z,96827.13
2023-04-05T17:24:41.621Z,96703.44
2023-04-05T17:27:10.711Z,96800.03
2023-04-05T17:29:38.499Z,96811.06
2023-04-05T17:32:06.694Z,96708.72
2023-04-05T17:34:37.211Z,96815.91
2023-04-05T17:37:04.633Z,96809.75
2023-04-05T17:39:32.098Z,96765.72
2023-04-05T17:41:59.165Z,96781.09
2023-04-05T17:44:26.340Z,96869.59
2023-04-05T17:47:01.624Z,96883.13
2023-04-05T17:49:37.617Z,96877.84
2023-04-05T17:52:08.719Z,96773.94
2023-04-05T17:54:39.416Z,96777.09
2023-04-05T17:57:12.871Z,96817.06
2023-04-05T17:59:43.344Z,96830.94
2023-04-05T18:02:11.304Z,96867.69
2023-04-05T18:04:40.369Z,97066.34
2023-04-05T18:07:08.920Z,96954.44
2023-04-05T18:09:38.555Z,97043.03
2023-04-05T18:12:06.399Z,97155.13
2023-04-05T18:14:36.343Z,97053.31
2023-04-05T18:17:09.787Z,97149.47
2023-04-05T18:19:39.743Z,97151.88
2023-04-05T18:22:07.388Z,97202.72
2023-04-05T18:24:34.989Z,97293.56
2023-04-05T18:27:02.671Z,97387.91
2023-04-05T18:29:30.915Z,97451.31
2023-04-05T18:31:58.390Z,97444.88
2023-04-05T18:34:26.254Z,97292.91
2023-04-05T18:36:53.665Z,97288.16
2023-04-05T18:39:21.162Z,97307.53
2023-04-05T18:41:48.563Z,97349.41
2023-04-05T18:44:16.499Z,97418.56
2023-04-05T18:46:45.123Z,97426.63
2023-04-05T18:49:15.781Z,97455.06
2023-04-05T18:51:43.363Z,97477.44
2023-04-05T18:54:11.053Z,97555.06
2023-04-05T18:56:38.468Z,97599.97
2023-04-05T18:59:06.171Z,97644.88
2023-04-05T19:01:33.794Z,97700.84
2023-04-05T19:04:01.371Z,97756.81
2023-04-05T19:06:30.036Z,97790.59
2023-04-05T19:08:57.475Z,97831.03
2023-04-05T19:11:25.062Z,97871.97
2023-04-05T19:13:53.982Z,97882.50
2023-04-05T19:16:21.609Z,97893.09
2023-04-05T19:18:49.043Z,97899.25
2023-04-05T19:21:17.158Z,97928.13
2023-04-05T19:23:44.578Z,97935.28
2023-04-05T19:26:12.396Z,97958.31
2023-04-05T19:28:39.878Z,98055.28
2023-04-05T19:31:08.094Z,98116.53
2023-04-05T19:33:35.696Z,98123.66
2023-04-05T19:36:03.145Z,98146.19
2023-04-05T19:38:36.516Z,98174.00
2023-04-05T19:41:04.006Z,98126.72
2023-04-05T19:43:31.847Z,98135.63
2023-04-05T19:46:00.931Z,98135.88
2023-04-05T19:48:42.627Z,98209.09
2023-04-05T19:51:15.108Z,98312.94
2023-04-05T19:53:48.555Z,98261.38
2023-04-05T19:56:30.014Z,98282.41
2023-04-05T19:59:01.394Z,98267.75
2023-04-05T20:01:37.939Z,98253.81
2023-04-05T20:04:18.873Z,98245.97
2023-04-05T20:06:57.004Z,98245.94
2023-04-05T20:09:26.992Z,98213.69
2023-04-05T20:12:03.608Z,98238.09
2023-04-05T20:14:46.461Z,98232.91
2023-04-05T20:17:15.957Z,98246.84
2023-04-05T20:19:57.357Z,98249.47
2023-04-05T20:22:26.143Z,98245.13
2023-04-05T20:24:53.507Z,98252.97
2023-04-05T20:27:21.023Z,98277.38
2023-04-05T20:29:48.494Z,98295.59
2023-04-05T20:32:17.781Z,98350.50
2023-04-05T20:34:46.151Z,98337.41
2023-04-05T20:37:13.621Z,98365.94
2023-04-05T20:39:41.156Z,98388.72
2023-04-05T20:42:09.954Z,98375.66
2023-04-05T20:44:37.307Z,98366.09
2023-04-05T20:47:04.529Z,98364.34
2023-04-05T20:49:31.948Z,98381.69
2023-04-05T20:51:59.801Z,98400.81
2023-04-05T20:54:27.384Z,98419.94
2023-04-05T20:56:54.821Z,98446.88
2023-04-05T20:59:22.463Z,98455.47
2023-04-05T21:01:50.105Z,98469.59
2023-04-05T21:04:17.186Z,98456.53
2023-04-05T21:06:44.572Z,98459.22
2023-04-05T21:09:12.086Z,98494.66
2023-04-05T21:11:39.583Z,98520.81
2023-04-05T21:14:07.024Z,98572.34
2023-04-05T21:16:34.559Z,98535.81
2023-04-05T21:19:02.056Z,98562.81
2023-04-05T21:21:29.454Z,98562.66
2023-04-05T21:23:56.842Z,98583.25
2023-04-05T21:26:23.915Z,98591.34
2023-04-05T21:28:51.349Z,98572.25
2023-04-05T21:31:18.826Z,98618.16
2023-04-05T21:33:46.236Z,98662.31
2023-04-05T21:36:14.210Z,98675.22
2023-04-05T21:38:41.641Z,98690.19
2023-04-05T21:41:08.737Z,98698.19
2023-04-05T21:43:36.362Z,98707.00
2023-04-05T21:46:03.791Z,98703.09
2023-04-05T21:48:31.196Z,98734.06
2023-04-05T21:50:58.657Z,98732.97
2023-04-05T21:53:26.123Z,98740.66
2023-04-05T21:55:53.559Z,98806.28
2023-04-05T21:58:21.094Z,98813.16
2023-04-05T22:00:48.504Z,98855.97
2023-04-05T22:03:16.105Z,98849.84
2023-04-05T22:05:43.527Z,98855.75
2023-04-05T22:08:11.300Z,98865.28
2023-04-05T22:10:38.859Z,98864.63
2023-04-05T22:13:06.335Z,98855.59
2023-04-05T22:15:33.719Z,98866.91
2023-04-05T22:18:01.965Z,98892.78
2023-04-05T22:20:29.434Z,98880.50
2023-04-05T22:22:57.006Z,98880.03
2023-04-05T22:25:26.357Z,98908.97
2023-04-05T22:27:59.744Z,98939.66
2023-04-05T22:30:37.228Z,98928.00
2023-04-05T22:33:12.902Z,98931.38
2023-04-05T22:35:41.125Z,98935.94
2023-04-05T22:38:08.572Z,98971.63
2023-04-05T22:40:36.146Z,98958.38
2023-04-05T22:43:03.575Z,98984.94
2023-04-05T22:45:31.175Z,99004.25
2023-04-05T22:47:58.672Z,99015.03
2023-04-05T22:50:26.223Z,99016.63
2023-04-05T22:52:53.740Z,99043.38
2023-04-05T22:55:21.320Z,99060.84
2023-04-05T22:57:49.663Z,99063.88
2023-04-05T23:00:18.356Z,99065.91
2023-04-05T23:02:45.677Z,99077.38
2023-04-05T23:05:13.335Z,99091.56
2023-04-05T23:07:41.064Z,99114.53
2023-04-05T23:10:09.108Z,99089.66
2023-04-05T23:12:36.898Z,99078.69
2023-04-05T23:15:04.854Z,99109.38
2023-04-05T23:17:32.494Z,99112.50
2023-04-05T23:19:59.815Z,99097.91
2023-04-05T23:22:27.618Z,99085.13
2023-04-05T23:24:54.998Z,99103.19
2023-04-05T23:27:23.016Z,99100.91
2023-04-05T23:29:50.242Z,99100.75
2023-04-05T23:32:18.030Z,99108.75
2023-04-05T23:34:45.367Z,99118.19
2023-04-05T23:37:13.086Z,99145.34
2023-04-05T23:39:40.853Z,99202.78
2023-04-05T23:42:08.932Z,99203.69
2023-04-05T23:44:37.705Z,99222.34
2023-04-05T23:47:07.914Z,99238.50
2023-04-05T23:49:35.702Z,99239.50
2023-04-05T23:52:03.467Z,99282.03
2023-04-05T23:54:30.725Z,99271.13
2023-04-05T23:56:58.078Z,99277.50
2023-04-05T23:59:25.986Z,99302.22
